Time;durP1;ratioP1;P1;durP2;ratioP2;P2;SDS_P1;SDS_P2;PMS_P1;PMS_P2;Temp;Humidity;BMP_temperature;BMP_pressure;BME280_temperature;BME280_humidity;BME280_pressure;Samples;Min_cycle;Max_cycle;Signal;HPM_P1;HPM_P2
2022/05/27 00:00:49;;;;;;;3.33;2.62;;;;;;;24.07;50.23;101085.19;1791467;79;22236;-83
2022/05/27 00:03:17;;;;;;;4.55;2.83;;;;;;;24.06;50.22;101077.41;1813588;78;21048;-84
2022/05/27 00:05:43;;;;;;;3.15;2.80;;;;;;;24.06;50.23;101083.58;1813721;78;21059;-82
2022/05/27 00:08:10;;;;;;;3.30;3.00;;;;;;;24.06;50.23;101087.14;1813884;78;20981;-83
2022/05/27 00:10:37;;;;;;;4.15;2.42;;;;;;;24.06;50.24;101094.09;1813877;79;21016;-83
2022/05/27 00:13:03;;;;;;;3.52;3.20;;;;;;;24.06;50.23;101091.92;1813672;79;21467;-83
2022/05/27 00:15:30;;;;;;;3.30;2.67;;;;;;;24.07;50.25;101096.30;1813861;79;20992;-83
2022/05/27 00:17:56;;;;;;;4.80;2.80;;;;;;;24.06;50.24;101094.70;1813923;79;21083;-83
2022/05/27 00:20:22;;;;;;;3.20;2.77;;;;;;;24.06;50.27;101099.66;1790971;79;21064;-82
2022/05/27 00:22:48;;;;;;;3.72;2.58;;;;;;;24.06;50.27;101095.48;1814077;79;21515;-83
2022/05/27 00:25:14;;;;;;;4.60;3.00;;;;;;;24.06;50.27;101104.42;1813811;79;21965;-83
2022/05/27 00:27:41;;;;;;;3.45;2.30;;;;;;;24.06;50.27;101100.26;1813633;78;21040;-82
2022/05/27 00:30:09;;;;;;;4.28;2.62;;;;;;;24.06;50.25;101097.48;1791429;79;21546;-82
2022/05/27 00:32:39;;;;;;;4.95;2.90;;;;;;;24.07;50.28;101099.91;1814044;79;21027;-83
2022/05/27 00:35:06;;;;;;;3.62;3.02;;;;;;;24.06;50.28;101095.48;1814085;78;21498;-83
2022/05/27 00:37:33;;;;;;;3.87;3.05;;;;;;;24.06;50.30;101088.53;1814012;78;21235;-82
2022/05/27 00:39:59;;;;;;;3.08;2.77;;;;;;;24.06;50.31;101092.70;1791308;79;21533;-83
2022/05/27 00:42:25;;;;;;;4.37;3.20;;;;;;;24.05;50.31;101091.09;1814014;79;20964;-83
2022/05/27 00:44:52;;;;;;;3.83;3.00;;;;;;;24.06;50.30;101094.70;1813990;79;21052;-83
2022/05/27 00:47:20;;;;;;;4.55;2.95;;;;;;;24.05;50.31;101093.88;1814201;79;21068;-83
2022/05/27 00:49:53;;;;;;;3.87;3.30;;;;;;;24.05;50.31;101099.44;1791521;79;22108;-83
2022/05/27 00:52:20;;;;;;;4.03;3.30;;;;;;;24.05;50.31;101093.06;1814092;79;21032;-82
2022/05/27 00:54:47;;;;;;;5.37;3.50;;;;;;;24.05;50.32;101097.23;1814057;79;21092;-82
2022/05/27 00:57:24;;;;;;;4.42;3.42;;;;;;;24.06;50.32;101098.87;1813785;78;21000;-82
2022/05/27 01:00:08;;;;;;;4.87;3.15;;;;;;;24.05;50.31;101102.78;1814096;78;21079;-82
2022/05/27 01:02:35;;;;;;;4.60;3.50;;;;;;;24.05;50.35;101102.78;1813986;79;21782;-83
2022/05/27 01:05:02;;;;;;;4.42;3.50;;;;;;;24.04;50.33;101100.58;1814084;79;21012;-82
2022/05/27 01:07:29;;;;;;;4.05;3.12;;;;;;;24.05;50.35;101105.56;1814186;79;21008;-83
2022/05/27 01:09:56;;;;;;;4.30;3.25;;;;;;;24.05;50.35;101105.56;1813764;78;21036;-83
2022/05/27 01:12:55;;;;;;;4.90;3.08;;;;;;;24.04;50.36;101104.75;1814162;79;21080;-83
2022/05/27 01:15:59;;;;;;;4.22;3.33;;;;;;;24.04;50.35;101098.37;1813739;78;21525;-82
2022/05/27 01:21:27;;;;;;;4.42;3.52;;;;;;;24.02;50.32;101087.58;1813944;78;21068;-82
2022/05/27 01:24:22;;;;;;;4.58;3.75;;;;;;;24.02;50.33;101092.31;1809774;78;21048;-83
2022/05/27 01:27:14;;;;;;;4.08;3.37;;;;;;;24.01;50.34;101085.97;1813885;79;21083;-82
2022/05/27 01:29:52;;;;;;;5.70;3.85;;;;;;;24.01;50.34;101091.53;1814153;79;21082;-82
2022/05/27 01:32:35;;;;;;;4.53;3.95;;;;;;;23.99;50.36;101082.69;1812940;78;21072;-82
2022/05/27 01:35:22;;;;;;;6.95;4.03;;;;;;;23.99;50.36;101081.30;1777470;78;21091;-83
2022/05/27 01:38:03;;;;;;;;;;;;;;;23.99;50.38;101081.88;1816083;78;21455;-82
2022/05/27 01:40:50;;;;;;;5.15;3.25;;;;;;;23.97;50.43;101085.58;1794778;79;20189;-83
2022/05/27 01:43:30;;;;;;;4.30;3.75;;;;;;;23.97;50.40;101083.62;1780492;79;21424;-82
2022/05/27 01:46:16;;;;;;;4.15;3.45;;;;;;;23.96;50.42;101076.42;1812338;78;20986;-82
2022/05/27 01:49:12;;;;;;;4.10;3.45;;;;;;;23.96;50.43;101080.59;1814122;79;21044;-83
2022/05/27 01:51:47;;;;;;;4.45;3.60;;;;;;;23.95;50.43;101080.91;1814391;79;21017;-82
2022/05/27 01:54:29;;;;;;;7.30;3.80;;;;;;;23.96;50.44;101084.77;1814171;79;21075;-82
2022/05/27 01:57:03;;;;;;;4.67;3.75;;;;;;;23.95;50.45;101078.95;1814212;78;21132;-82
2022/05/27 02:00:04;;;;;;;5.75;4.20;;;;;;;23.96;50.47;101084.77;1813770;79;20956;-82
2022/05/27 02:02:32;;;;;;;7.20;4.10;;;;;;;23.96;50.49;101078.38;1813940;78;21029;-83
2022/05/27 02:05:26;;;;;;;4.47;3.75;;;;;;;23.97;50.49;101084.19;1814057;79;21023;-82
2022/05/27 02:07:57;;;;;;;5.33;3.95;;;;;;;23.96;50.48;101083.94;1814378;78;21048;-83
2022/05/27 02:10:41;;;;;;;3.95;3.65;;;;;;;23.96;50.48;101083.94;1814074;79;22138;-83
2022/05/27 02:13:27;;;;;;;6.55;3.65;;;;;;;23.97;50.50;101086.97;1808987;79;21012;-83
2022/05/27 02:15:53;;;;;;;5.08;3.33;;;;;;;23.97;50.50;101084.19;1814226;78;21025;-83
2022/05/27 02:18:28;;;;;;;3.80;3.27;;;;;;;23.95;50.50;101075.36;1791790;78;21526;-82
2022/05/27 02:20:59;;;;;;;5.45;3.83;;;;;;;23.96;50.50;101083.94;1814738;78;21056;-82
2022/05/27 02:23:37;;;;;;;4.22;3.35;;;;;;;23.96;50.51;101083.94;1813657;79;21087;-83
2022/05/27 02:26:10;;;;;;;3.77;3.45;;;;;;;23.97;50.53;101083.62;1791077;79;21400;-82
2022/05/27 02:28:43;;;;;;;4.22;3.50;;;;;;;23.96;50.51;101083.38;1813386;79;21084;-83
2022/05/27 02:31:21;;;;;;;4.22;3.83;;;;;;;23.98;50.52;101080.23;1813722;78;21047;-83
2022/05/27 02:36:43;;;;;;;4.35;3.95;;;;;;;23.97;50.51;101082.80;1813605;79;21125;-83
2022/05/27 02:39:09;;;;;;;4.30;3.70;;;;;;;23.96;50.54;101081.16;1812424;79;21048;-83
2022/05/27 02:41:56;;;;;;;3.80;3.42;;;;;;;23.97;50.54;101085.58;1813803;79;21071;-82
2022/05/27 02:44:41;;;;;;;4.50;3.92;;;;;;;23.97;50.56;101086.97;1813147;78;21126;-82
2022/05/27 02:47:31;;;;;;;4.47;3.90;;;;;;;23.96;50.55;101090.31;1813587;79;21037;-82
2022/05/27 02:50:19;;;;;;;3.92;3.42;;;;;;;23.97;50.56;101098.09;1813893;79;21044;-82
2022/05/27 02:53:06;;;;;;;4.22;3.33;;;;;;;23.98;50.53;101092.74;1814156;78;21123;-82
2022/05/27 02:55:50;;;;;;;5.72;3.70;;;;;;;23.97;50.50;101091.14;1813805;79;21024;-82
2022/05/27 02:58:16;;;;;;;5.17;3.92;;;;;;;23.95;50.54;101090.07;1814057;78;21439;-82
2022/05/27 03:00:44;;;;;;;4.85;4.20;;;;;;;23.96;50.54;101086.72;1813719;78;21112;-82
2022/05/27 03:03:10;;;;;;;7.10;3.98;;;;;;;23.96;50.55;101083.38;1813675;79;21136;-82
2022/05/27 03:05:54;;;;;;;5.15;4.05;;;;;;;23.97;50.58;101091.14;1814169;79;21503;-82
2022/05/27 03:08:25;;;;;;;4.75;3.92;;;;;;;23.96;50.60;101087.54;1813904;79;21032;-82
2022/05/27 03:11:09;;;;;;;5.25;4.05;;;;;;;23.97;50.60;101088.36;1813740;79;21012;-82
2022/05/27 03:14:19;;;;;;;5.28;4.40;;;;;;;23.97;50.62;101091.14;1813371;78;21011;-82
2022/05/27 03:16:54;;;;;;;4.70;3.90;;;;;;;23.96;50.60;101090.31;1813572;78;22283;-82
2022/05/27 03:19:40;;;;;;;5.55;4.08;;;;;;;23.96;50.58;101096.45;1803820;78;21043;-82
2022/05/27 03:22:45;;;;;;;4.50;3.67;;;;;;;23.96;50.58;101104.78;1797795;79;21068;-82
2022/05/27 03:25:20;;;;;;;5.08;3.62;;;;;;;23.96;50.58;101104.78;1796871;79;21428;-82
2022/05/27 03:27:55;;;;;;;4.67;3.98;;;;;;;23.96;50.58;101106.17;1797827;79;21112;-82
2022/05/27 03:30:42;;;;;;;5.20;3.92;;;;;;;23.95;50.59;101105.92;1797680;79;21017;-82
2022/05/27 03:33:37;;;;;;;4.17;3.50;;;;;;;23.94;50.57;101104.28;1797124;79;21028;-81
2022/05/27 03:36:27;;;;;;;4.62;3.98;;;;;;;23.95;50.58;101105.92;1797711;79;21524;-81
2022/05/27 03:39:08;;;;;;;4.92;4.10;;;;;;;23.94;50.58;101107.89;1775983;79;21045;-83
2022/05/27 03:41:38;;;;;;;6.17;3.95;;;;;;;23.95;50.59;101111.48;1797799;79;21444;-82
2022/05/27 03:44:05;;;;;;;4.05;3.65;;;;;;;23.94;50.58;101114.02;1798059;79;21988;-83
2022/05/27 03:46:37;;;;;;;4.60;3.65;;;;;;;23.94;50.62;101114.83;1775600;79;21056;-82
2022/05/27 03:49:04;;;;;;;4.37;3.98;;;;;;;23.94;50.60;101111.23;1797703;79;21017;-81
2022/05/27 03:51:37;;;;;;;7.20;4.08;;;;;;;23.94;50.62;101107.89;1797890;79;21021;-82
2022/05/27 03:54:05;;;;;;;5.30;4.22;;;;;;;23.96;50.62;101108.38;1797920;79;21033;-82
2022/05/27 03:56:38;;;;;;;4.75;3.87;;;;;;;23.96;50.63;101107.56;1797703;79;21850;-82
2022/05/27 03:59:07;;;;;;;6.62;4.50;;;;;;;23.96;50.62;101110.34;1797840;79;20998;-82
2022/05/27 04:01:35;;;;;;;5.70;3.77;;;;;;;23.97;50.61;101113.37;1797648;79;21001;-83
2022/05/27 04:04:03;;;;;;;5.05;4.55;;;;;;;23.94;50.62;101110.66;1797923;79;21061;-82
2022/05/27 04:06:29;;;;;;;6.05;4.47;;;;;;;23.95;50.68;101110.09;1798168;79;21095;-82
2022/05/27 04:08:57;;;;;;;5.17;4.50;;;;;;;23.94;50.75;101108.45;1797611;79;21072;-82
2022/05/27 04:11:24;;;;;;;5.87;4.17;;;;;;;23.93;50.79;101106.25;1797935;79;21695;-82
2022/05/27 04:13:50;;;;;;;5.78;4.17;;;;;;;23.93;50.83;101114.58;1802866;78;21068;-82
2022/05/27 04:16:17;;;;;;;6.15;4.40;;;;;;;23.93;50.84;101120.74;1830448;78;21076;-82
2022/05/27 04:18:43;;;;;;;7.90;5.08;;;;;;;23.94;50.88;101119.58;1794769;77;21617;-82
2022/05/27 04:21:09;;;;;;;7.97;5.03;;;;;;;23.93;50.92;101122.13;1840398;77;21653;-83
2022/05/27 04:23:36;;;;;;;6.83;4.83;;;;;;;23.92;51.01;101127.44;1811572;77;20989;-83
2022/05/27 04:26:02;;;;;;;8.50;5.08;;;;;;;23.91;51.05;101128.58;1842017;77;21052;-82
2022/05/27 04:28:28;;;;;;;5.53;4.95;;;;;;;23.90;51.13;101123.59;1739563;81;21561;-82
2022/05/27 04:30:55;;;;;;;6.92;5.12;;;;;;;23.89;51.22;101124.73;1741206;81;21170;-83
2022/05/27 04:33:21;;;;;;;7.70;5.47;;;;;;;23.88;51.32;101126.48;1760868;79;21861;-88
2022/05/27 04:35:47;;;;;;;7.87;5.28;;;;;;;23.86;51.42;101130.15;1771028;81;21052;-86
2022/05/27 04:38:14;;;;;;;8.15;6.17;;;;;;;23.86;51.48;101139.88;1756882;79;22241;-81
2022/05/27 04:40:40;;;;;;;11.20;6.53;;;;;;;23.85;51.56;101140.44;1758325;79;21135;-82
2022/05/27 04:43:07;;;;;;;7.95;6.00;;;;;;;23.86;51.63;101141.27;1759614;79;21025;-84
2022/05/27 04:45:33;;;;;;;8.58;5.58;;;;;;;23.85;51.70;101138.27;1734900;80;21197;-83
2022/05/27 04:48:01;;;;;;;7.55;5.55;;;;;;;23.85;51.77;101145.21;1754117;79;21801;-83
2022/05/27 04:50:32;;;;;;;6.50;5.42;;;;;;;23.84;51.82;101142.18;1818253;77;21084;-84
2022/05/27 04:52:59;;;;;;;14.35;5.42;;;;;;;23.84;51.84;101147.17;1817059;77;21041;-84
2022/05/27 04:55:26;;;;;;;16.25;5.47;;;;;;;23.84;51.85;101148.56;1825093;76;21021;-86
2022/05/27 04:58:00;;;;;;;16.87;5.85;;;;;;;23.84;51.93;101157.47;1829234;76;21131;-86
2022/05/27 05:00:34;;;;;;;10.48;5.17;;;;;;;23.84;51.96;101157.47;1831417;78;21463;-84
2022/05/27 05:03:03;;;;;;;10.20;5.15;;;;;;;23.83;52.03;101147.49;1802803;78;21286;-82
2022/05/27 05:05:30;;;;;;;13.45;5.45;;;;;;;23.84;52.10;101153.30;1806469;77;21100;-77
2022/05/27 05:08:11;;;;;;;8.53;5.58;;;;;;;23.85;52.09;101148.78;1814419;77;21099;-77
2022/05/27 05:10:37;;;;;;;8.90;5.73;;;;;;;23.85;52.11;101138.27;1820855;77;21338;-77
2022/05/27 05:13:03;;;;;;;10.35;5.90;;;;;;;23.84;52.16;101145.78;1822937;76;21056;-78
2022/05/27 05:15:30;;;;;;;7.28;4.78;;;;;;;23.86;52.15;101148.20;1829145;77;21036;-77
2022/05/27 05:17:56;;;;;;;10.32;4.90;;;;;;;23.85;52.17;101143.82;1747480;80;21068;-78
2022/05/27 05:20:26;;;;;;;10.70;5.53;;;;;;;23.87;52.15;101142.90;1733724;79;21502;-77
2022/05/27 05:22:53;;;;;;;9.08;5.40;;;;;;;23.87;52.16;101136.77;1779335;79;25098;-78
2022/05/27 05:25:19;;;;;;;10.68;5.85;;;;;;;23.89;52.13;101146.97;1781580;79;21578;-78
2022/05/27 05:27:46;;;;;;;12.23;6.08;;;;;;;23.89;52.12;101142.80;1758785;80;21096;-77
2022/05/27 05:30:16;;;;;;;8.80;5.15;;;;;;;23.89;52.13;101144.79;1769110;79;21155;-77
2022/05/27 05:32:42;;;;;;;6.35;4.60;;;;;;;23.91;52.12;101140.52;1764678;79;21120;-78
2022/05/27 05:35:09;;;;;;;8.85;4.90;;;;;;;23.92;52.11;101145.50;1747533;79;21619;-78
2022/05/27 05:37:35;;;;;;;6.28;5.15;;;;;;;23.92;52.11;101143.55;1743424;80;21085;-78
2022/05/27 05:40:02;;;;;;;12.33;5.28;;;;;;;23.91;52.12;101143.87;1745965;79;20883;-77
2022/05/27 05:42:28;;;;;;;6.35;4.83;;;;;;;23.93;52.14;101144.37;1756365;79;21066;-79
2022/05/27 05:44:58;;;;;;;8.88;4.53;;;;;;;23.94;52.14;101145.97;1776197;78;21495;-84
2022/05/27 05:47:24;;;;;;;8.83;4.75;;;;;;;23.94;52.17;101147.36;1801817;78;22315;-83
2022/05/27 05:49:52;;;;;;;11.40;4.87;;;;;;;23.93;52.17;101142.98;1773585;79;20985;-80
2022/05/27 05:52:18;;;;;;;9.63;4.70;;;;;;;23.92;52.25;101146.89;1768376;79;21030;-81
2022/05/27 05:54:45;;;;;;;9.15;4.17;;;;;;;23.88;52.29;101157.05;1766697;78;21426;-79
2022/05/27 05:57:11;;;;;;;9.85;4.47;;;;;;;23.85;52.47;101162.67;1761969;78;21077;-84
2022/05/27 05:59:38;;;;;;;12.50;4.90;;;;;;;23.82;52.52;101161.95;1770248;79;21129;-82
2022/05/27 06:02:04;;;;;;;5.05;4.55;;;;;;;23.80;52.54;101159.27;1758152;79;21124;-79
2022/05/27 06:04:31;;;;;;;14.68;4.72;;;;;;;23.77;52.64;101155.17;1751404;80;21871;-80
2022/05/27 06:06:57;;;;;;;12.85;5.03;;;;;;;23.77;52.73;101165.47;1756200;78;21151;-79
2022/05/27 06:09:25;;;;;;;7.50;4.25;;;;;;;23.77;52.79;101166.86;1763348;79;21167;-81
2022/05/27 06:11:54;;;;;;;8.75;4.87;;;;;;;23.78;52.88;101165.16;1759842;79;21375;-81
2022/05/27 06:14:21;;;;;;;7.35;4.50;;;;;;;23.77;52.92;101164.08;1763049;79;21046;-83
2022/05/27 06:16:47;;;;;;;9.23;4.30;;;;;;;23.76;52.99;101163.30;1769134;80;21084;-79
2022/05/27 06:19:14;;;;;;;9.13;4.55;;;;;;;23.77;53.04;101158.52;1752927;79;21178;-81
2022/05/27 06:21:40;;;;;;;7.80;4.33;;;;;;;23.78;53.03;101157.38;1796543;79;21085;-80
2022/05/27 06:24:07;;;;;;;10.15;4.40;;;;;;;23.81;53.06;101161.70;1775634;78;21086;-81
2022/05/27 06:26:34;;;;;;;6.65;4.20;;;;;;;23.83;53.00;101164.16;1774907;79;21580;-79
2022/05/27 06:34:30;;;;;;;5.42;3.50;;;;;;;23.87;52.63;101168.73;1741453;82;21108;-81
2022/05/27 06:37:05;;;;;;;6.33;3.50;;;;;;;23.87;52.49;101170.69;1777986;78;21118;-81
2022/05/27 06:39:34;;;;;;;3.77;3.10;;;;;;;23.88;52.41;101165.37;1791249;78;21269;-83
2022/05/27 06:42:02;;;;;;;7.20;3.77;;;;;;;23.88;52.33;101166.77;1797354;79;21081;-79
2022/05/27 06:44:28;;;;;;;5.45;3.05;;;;;;;23.87;52.22;101167.91;1789417;79;21101;-80
2022/05/27 06:46:56;;;;;;;6.60;3.35;;;;;;;23.87;52.17;101167.91;1784020;78;21049;-79
2022/05/27 06:49:23;;;;;;;7.10;3.80;;;;;;;23.88;52.04;101163.99;1750177;80;21118;-78
2022/05/27 06:51:50;;;;;;;5.95;3.45;;;;;;;23.87;51.82;101166.52;1767326;79;21295;-79
2022/05/27 06:54:17;;;;;;;7.37;3.27;;;;;;;23.86;51.63;101167.09;1776924;79;21076;-78
2022/05/27 06:56:44;;;;;;;11.38;3.35;;;;;;;23.86;51.50;101167.09;1776187;79;21033;-79
2022/05/27 06:59:10;;;;;;;8.03;3.50;;;;;;;23.87;51.49;101154.84;1785748;79;21043;-78
2022/05/27 07:01:37;;;;;;;9.75;3.10;;;;;;;23.90;51.46;101173.61;1763201;79;21103;-81
2022/05/27 07:04:04;;;;;;;5.35;3.05;;;;;;;23.91;51.18;101162.75;1761209;79;21085;-79
2022/05/27 07:06:33;;;;;;;12.10;4.05;;;;;;;23.91;50.95;101166.92;1763410;79;21547;-79
2022/05/27 07:09:03;;;;;;;4.80;2.97;;;;;;;23.93;50.96;101154.88;1767064;79;21598;-80
2022/05/27 07:11:28;;;;;;;8.10;3.42;;;;;;;23.96;51.05;101157.59;1794117;79;21009;-80
2022/05/27 07:13:55;;;;;;;11.05;3.42;;;;;;;23.96;50.94;101163.97;1790695;79;21137;-81
2022/05/27 07:16:21;;;;;;;5.42;2.77;;;;;;;23.99;50.87;101162.47;1791050;78;21113;-79
2022/05/27 07:18:48;;;;;;;6.10;4.42;;;;;;;24.00;50.66;101163.54;1787586;78;21085;-79
2022/05/27 07:21:14;;;;;;;7.87;3.37;;;;;;;24.02;50.61;101160.41;1787126;78;21033;-80
2022/05/27 07:23:41;;;;;;;8.33;4.22;;;;;;;24.02;50.04;101158.45;1787249;78;21094;-79
2022/05/27 07:26:07;;;;;;;7.37;4.53;;;;;;;24.04;49.95;101158.13;1791481;79;21096;-78
2022/05/27 07:28:34;;;;;;;6.47;4.45;;;;;;;24.05;49.90;101160.59;1763703;79;21915;-80
2022/05/27 07:31:01;;;;;;;8.68;4.33;;;;;;;24.08;49.84;101166.05;1785279;78;21009;-80
2022/05/27 07:33:28;;;;;;;8.08;4.37;;;;;;;24.08;49.82;101156.31;1789826;78;21143;-80
2022/05/27 07:35:54;;;;;;;9.90;4.55;;;;;;;24.09;49.69;101155.17;1792214;78;21045;-79
2022/05/27 07:38:23;;;;;;;5.42;3.87;;;;;;;24.10;49.52;101158.20;1795362;79;21284;-78
2022/05/27 07:40:49;;;;;;;7.80;3.87;;;;;;;24.11;49.38;101155.64;1795451;79;21297;-79
2022/05/27 07:43:16;;;;;;;9.13;4.62;;;;;;;24.10;49.31;101152.04;1769441;78;21045;-80
2022/05/27 07:45:43;;;;;;;13.35;7.22;;;;;;;24.12;49.26;101154.50;1783556;78;21282;-79
2022/05/27 07:48:11;;;;;;;10.95;5.45;;;;;;;24.10;49.18;101150.66;1776519;78;21069;-78
2022/05/27 07:50:38;;;;;;;9.45;5.40;;;;;;;24.11;49.13;101148.69;1780967;78;22133;-77
2022/05/27 07:53:05;;;;;;;19.62;5.22;;;;;;;24.11;49.10;101145.91;1778611;78;22196;-79
2022/05/27 07:55:32;;;;;;;9.88;4.92;;;;;;;24.13;49.20;101147.80;1790639;78;21057;-78
2022/05/27 07:57:58;;;;;;;10.40;4.17;;;;;;;24.15;49.23;101144.12;1787311;78;21517;-77
2022/05/27 08:00:29;;;;;;;11.43;4.20;;;;;;;24.16;49.16;101147.16;1787487;78;21034;-79
2022/05/27 08:02:55;;;;;;;21.73;5.33;;;;;;;24.18;49.17;101145.44;1782465;78;21119;-76
2022/05/27 08:05:27;;;;;;;10.32;4.30;;;;;;;24.18;49.21;101148.22;1787497;77;21105;-79
2022/05/27 08:07:54;;;;;;;10.50;3.20;;;;;;;24.18;49.13;101142.66;1778262;78;21472;-79
2022/05/27 08:10:24;;;;;;;5.75;3.83;;;;;;;24.18;48.99;101143.48;1790230;78;21042;-82
2022/05/27 08:12:50;;;;;;;13.38;4.12;;;;;;;24.19;48.92;101145.09;1779005;78;21054;-79
2022/05/27 08:15:18;;;;;;;8.63;3.50;;;;;;;24.19;48.83;101143.70;1796316;78;21372;-80
2022/05/27 08:17:44;;;;;;;8.33;2.75;;;;;;;24.18;48.73;101147.65;1787731;78;21113;-82
2022/05/27 08:20:17;;;;;;;5.92;3.90;;;;;;;24.19;48.49;101141.52;1790209;78;21042;-82
2022/05/27 08:22:43;;;;;;;9.40;4.12;;;;;;;24.19;48.22;101145.09;1750134;79;21320;-79
2022/05/27 08:25:10;;;;;;;6.00;3.15;;;;;;;24.18;48.12;101142.09;1748102;80;21081;-82
2022/05/27 08:27:37;;;;;;;11.12;3.37;;;;;;;24.19;48.04;101143.70;1772901;79;21144;-81
2022/05/27 08:30:05;;;;;;;6.92;3.33;;;;;;;24.19;47.92;101140.91;1777824;78;21599;-82
2022/05/27 08:32:32;;;;;;;9.20;4.70;;;;;;;24.21;47.93;101137.81;1775744;79;21109;-80
2022/05/27 08:38:03;;;;;;;4.78;3.47;;;;;;;24.23;47.66;101137.70;1757532;79;21587;-78
2022/05/27 08:40:56;;;;;;;8.20;4.53;;;;;;;24.23;47.45;101134.92;1814721;76;21103;-80
2022/05/27 08:43:29;;;;;;;7.00;4.47;;;;;;;24.22;47.35;101133.32;1812196;76;21569;-81
2022/05/27 08:46:31;;;;;;;8.43;4.75;;;;;;;24.22;47.27;101130.54;1821361;76;21816;-79
2022/05/27 08:49:01;;;;;;;10.75;5.78;;;;;;;24.24;47.13;101128.22;1814131;76;21320;-79
2022/05/27 08:51:42;;;;;;;12.35;4.55;;;;;;;24.23;47.21;101120.23;1805661;76;26624;-79
2022/05/27 08:54:14;;;;;;;12.82;4.25;;;;;;;24.25;47.21;101116.53;1809245;76;22445;-79
2022/05/27 08:59:40;;;;;;;10.10;3.90;;;;;;;24.27;47.39;101111.47;1816859;76;21048;-79
2022/05/27 09:02:45;;;;;;;8.95;3.42;;;;;;;24.29;47.50;101109.15;1815206;76;21037;-80
2022/05/27 09:05:26;;;;;;;9.15;3.45;;;;;;;24.30;47.60;101103.27;1825865;76;21578;-79
2022/05/27 09:08:05;;;;;;;18.23;3.80;;;;;;;24.33;47.65;101103.16;1760033;79;21688;-78
2022/05/27 09:11:16;;;;;;;15.72;3.05;;;;;;;24.33;47.71;101097.02;1749757;79;21126;-79
2022/05/27 09:14:15;;;;;;;6.75;2.67;;;;;;;24.34;47.59;101097.27;1704839;81;21596;-78
2022/05/27 09:17:04;;;;;;;4.78;2.33;;;;;;;24.37;47.37;101097.16;1762241;79;21037;-78
2022/05/27 09:20:02;;;;;;;6.62;2.60;;;;;;;24.36;47.12;101096.91;1727583;79;21087;-78
2022/05/27 09:22:57;;;;;;;5.22;2.10;;;;;;;24.36;46.76;101091.34;1801396;78;21196;-77
2022/05/27 09:25:36;;;;;;;5.97;2.37;;;;;;;24.35;46.58;101090.56;1818888;77;21278;-76
2022/05/27 09:28:27;;;;;;;5.20;2.60;;;;;;;24.35;46.58;101093.34;1815701;76;21049;-77
2022/05/27 09:30:57;;;;;;;3.95;2.00;;;;;;;24.36;46.57;101085.79;1824238;77;21049;-77
2022/05/27 09:33:31;;;;;;;3.58;1.90;;;;;;;24.36;46.32;101085.79;1807487;77;21061;-77
2022/05/27 09:36:18;;;;;;;3.90;1.90;;;;;;;24.36;45.92;101082.44;1808670;77;21703;-77
2022/05/27 09:38:59;;;;;;;3.35;2.10;;;;;;;24.37;45.73;101073.52;1792414;77;21769;-78
2022/05/27 09:41:45;;;;;;;2.87;2.20;;;;;;;24.39;45.51;101079.58;1815971;77;21598;-78
2022/05/27 09:44:35;;;;;;;3.77;1.90;;;;;;;24.38;45.31;101070.41;1816451;77;21045;-78
2022/05/27 09:47:22;;;;;;;3.50;2.33;;;;;;;24.39;45.19;101065.67;1810779;77;21057;-78
2022/05/27 09:49:56;;;;;;;3.90;1.70;;;;;;;24.38;45.07;101063.46;1822213;77;20854;-77
2022/05/27 09:52:31;;;;;;;10.13;2.37;;;;;;;24.38;44.98;101062.07;1804067;78;21608;-77
2022/05/27 09:55:18;;;;;;;8.75;2.20;;;;;;;24.38;45.20;101062.07;1819254;77;21247;-77
2022/05/27 09:58:00;;;;;;;9.35;1.87;;;;;;;24.37;45.14;101054.88;1812958;77;21031;-81
2022/05/27 10:00:45;;;;;;;6.03;1.80;;;;;;;24.38;45.12;101056.51;1790039;78;21609;-77
2022/05/27 10:03:29;;;;;;;8.50;1.62;;;;;;;24.39;44.92;101056.76;1792383;78;21119;-80
2022/05/27 10:06:01;;;;;;;5.92;2.00;;;;;;;24.42;44.67;101056.07;1816165;77;21045;-78
2022/05/27 10:08:35;;;;;;;5.80;1.80;;;;;;;24.45;44.56;101049.83;1810766;77;20954;-80
2022/05/27 10:11:12;;;;;;;6.03;1.67;;;;;;;24.48;44.47;101043.61;1805300;78;21147;-78
2022/05/27 10:13:41;;;;;;;5.78;1.70;;;;;;;24.52;44.34;101036.78;1817280;77;21088;-77
2022/05/27 10:16:25;;;;;;;9.95;2.12;;;;;;;24.55;44.49;101040.27;1810707;77;22011;-77
2022/05/27 10:19:14;;;;;;;4.78;1.70;;;;;;;24.57;44.62;101029.61;1798518;78;21100;-77
2022/05/27 10:21:57;;;;;;;5.42;1.60;;;;;;;24.57;44.83;101032.39;1797471;77;21074;-76
2022/05/27 10:24:39;;;;;;;4.40;2.15;;;;;;;24.57;45.01;101031.00;1810414;77;21138;-77
2022/05/27 10:27:12;;;;;;;4.65;1.70;;;;;;;24.56;44.95;101031.60;1808475;78;21056;-77
2022/05/27 10:29:56;;;;;;;3.90;1.50;;;;;;;24.55;44.78;101027.75;1822132;76;21104;-77
2022/05/27 10:32:36;;;;;;;4.28;1.77;;;;;;;24.54;44.58;101024.73;1821043;77;21603;-77
2022/05/27 10:35:30;;;;;;;3.45;1.95;;;;;;;24.52;44.50;101026.48;1815318;77;21088;-77
2022/05/27 10:38:26;;;;;;;3.30;2.65;;;;;;;24.51;44.34;101021.24;1819149;77;21018;-77
2022/05/27 10:41:15;;;;;;;8.35;2.15;;;;;;;24.49;44.40;101014.62;1817516;77;21017;-78
2022/05/27 10:44:10;;;;;;;4.40;1.35;;;;;;;24.49;44.46;101014.62;1808399;77;22020;-78
2022/05/27 10:46:41;;;;;;;3.83;1.70;;;;;;;24.48;44.46;101011.62;1813624;77;21004;-78
2022/05/27 10:49:42;;;;;;;4.60;1.72;;;;;;;24.47;44.35;101007.20;1812890;77;21026;-78
2022/05/27 10:52:40;;;;;;;3.77;1.87;;;;;;;24.46;44.29;100998.62;1810129;77;21040;-78
2022/05/27 10:55:34;;;;;;;4.45;2.10;;;;;;;24.46;44.21;101003.36;1819045;76;21562;-77
2022/05/27 11:04:28;;;;;;;5.73;1.97;;;;;;;24.47;44.05;100984.95;1824707;77;21092;-77
2022/05/27 11:07:17;;;;;;;6.80;2.08;;;;;;;24.49;43.99;100981.23;1737804;80;21080;-79
2022/05/27 11:10:21;;;;;;;5.60;1.90;;;;;;;24.49;43.86;100980.42;1743594;81;21128;-78
2022/05/27 11:16:03;;;;;;;3.52;1.70;;;;;;;24.49;43.47;100968.73;1821986;77;21088;-78
2022/05/27 11:18:44;;;;;;;4.50;1.67;;;;;;;24.49;43.28;100963.16;1824270;77;21067;-78
2022/05/27 11:21:34;;;;;;;4.35;1.77;;;;;;;24.48;43.26;100964.34;1730886;79;22088;-77
2022/05/27 11:24:24;;;;;;;3.42;1.77;;;;;;;24.48;43.30;100958.78;1782829;79;21361;-76
2022/05/27 11:27:25;;;;;;;8.95;1.75;;;;;;;24.48;43.33;100957.39;1747528;78;22523;-78
2022/05/27 11:30:19;;;;;;;5.92;1.80;;;;;;;24.47;43.31;100957.14;1792257;78;21083;-77
2022/05/27 11:33:14;;;;;;;2.22;1.40;;;;;;;24.46;43.22;100951.91;1788933;79;21051;-76
2022/05/27 11:36:21;;;;;;;2.50;1.77;;;;;;;24.46;43.12;100945.77;1798636;79;21458;-76
2022/05/27 11:39:16;;;;;;;2.08;1.55;;;;;;;24.47;42.97;100949.37;1744874;80;21017;-76
2022/05/27 11:42:13;;;;;;;5.67;1.90;;;;;;;24.46;42.85;100944.95;1711804;82;22069;-79
2022/05/27 11:44:57;;;;;;;6.90;1.80;;;;;;;24.46;42.78;100936.04;1729530;81;21253;-77
2022/05/27 11:47:55;;;;;;;5.60;2.00;;;;;;;24.45;42.76;100940.54;1768184;78;21088;-75
2022/05/27 11:50:56;;;;;;;3.80;1.95;;;;;;;24.45;42.69;100932.20;1770323;78;21092;-76
2022/05/27 11:53:46;;;;;;;;;;;;;;;24.45;42.70;100934.98;1722393;81;21388;-75
2022/05/27 11:56:57;;;;;;;14.30;2.05;;;;;;;24.44;43.11;100928.59;1734898;81;21136;-76
2022/05/27 11:59:33;;;;;;;20.65;2.50;;;;;;;24.45;43.64;100931.63;1754088;79;21022;-77
2022/05/27 12:02:22;;;;;;;14.53;2.50;;;;;;;24.47;44.27;100916.00;1719181;81;21524;-77
2022/05/27 12:05:00;;;;;;;11.85;2.30;;;;;;;24.49;44.60;100913.67;1732132;81;21053;-78
2022/05/27 12:07:50;;;;;;;18.52;2.50;;;;;;;24.50;45.02;100910.56;1702618;82;21100;-78
2022/05/27 12:10:24;;;;;;;9.20;2.33;;;;;;;24.53;45.30;100901.52;1753406;79;21024;-77
2022/05/27 12:13:32;;;;;;;11.65;2.30;;;;;;;24.55;45.48;100902.58;1797844;77;21029;-77
2022/05/27 12:16:09;;;;;;;7.45;2.00;;;;;;;24.55;45.40;100896.45;1774916;79;21064;-78
2022/05/27 12:18:57;;;;;;;9.90;2.20;;;;;;;24.53;45.33;100889.00;1768584;79;21073;-77
2022/05/27 12:21:26;;;;;;;7.08;1.90;;;;;;;24.53;45.42;100890.97;1777439;77;21473;-77
2022/05/27 12:24:13;;;;;;;8.15;2.30;;;;;;;24.53;45.34;100881.23;1816530;77;21347;-78
2022/05/27 12:26:39;;;;;;;8.80;2.00;;;;;;;24.52;45.32;100875.46;1794829;77;21014;-77
2022/05/27 12:29:11;;;;;;;5.17;2.02;;;;;;;24.52;45.31;100876.28;1804085;78;21008;-78